createdAt,value
2018-10-07T00:01:08.722Z,1003.83
2018-10-07T00:02:08.643Z,1003.81
2018-10-07T00:04:01.409Z,1003.81
2018-10-07T00:05:01.353Z,1003.78
2018-10-07T00:06:54.148Z,1003.76
2018-10-07T00:07:54.065Z,1003.78
2018-10-07T00:09:46.840Z,1003.80
2018-10-07T00:10:46.769Z,1003.79
2018-10-07T00:12:39.556Z,1003.84
2018-10-07T00:13:39.486Z,1003.86
2018-10-07T00:15:32.251Z,1003.86
2018-10-07T00:16:32.188Z,1003.82
2018-10-07T00:18:25.007Z,1003.81
2018-10-07T00:19:24.921Z,1003.79
2018-10-07T00:21:17.712Z,1003.74
2018-10-07T00:22:17.628Z,1003.76
2018-10-07T00:24:10.406Z,1003.72
2018-10-07T00:25:10.334Z,1003.72
2018-10-07T00:27:03.143Z,1003.71
2018-10-07T00:28:03.057Z,1003.72
2018-10-07T00:29:55.825Z,1003.68
2018-10-07T00:30:55.754Z,1003.66
2018-10-07T00:32:48.551Z,1003.68
2018-10-07T00:33:48.479Z,1003.65
2018-10-07T00:35:41.250Z,1003.68
2018-10-07T00:36:41.185Z,1003.66
2018-10-07T00:38:33.989Z,1003.68
2018-10-07T00:39:33.906Z,1003.68
2018-10-07T00:41:26.715Z,1003.71
2018-10-07T00:42:26.617Z,1003.70
2018-10-07T00:44:19.404Z,1003.68
2018-10-07T00:45:19.347Z,1003.71
2018-10-07T00:47:12.110Z,1003.67
2018-10-07T00:48:12.030Z,1003.67
2018-10-07T00:50:04.819Z,1003.66
2018-10-07T00:51:04.752Z,1003.69
2018-10-07T00:52:57.558Z,1003.64
2018-10-07T00:53:57.480Z,1003.68
2018-10-07T00:55:50.251Z,1003.67
2018-10-07T00:56:50.204Z,1003.67
2018-10-07T00:58:42.978Z,1003.66
2018-10-07T00:59:42.908Z,1003.66
2018-10-07T01:01:35.691Z,1003.68
2018-10-07T01:02:35.620Z,1003.72
2018-10-07T01:04:28.388Z,1003.66
2018-10-07T01:05:28.326Z,1003.64
2018-10-07T01:07:21.130Z,1003.65
2018-10-07T01:08:21.079Z,1003.67
2018-10-07T01:10:13.821Z,1003.65
2018-10-07T01:11:13.766Z,1003.66
2018-10-07T01:13:06.547Z,1003.61
2018-10-07T01:14:06.473Z,1003.63
2018-10-07T01:15:59.242Z,1003.61
2018-10-07T01:16:59.183Z,1003.61
2018-10-07T01:18:51.956Z,1003.58
2018-10-07T01:19:51.883Z,1003.58
2018-10-07T01:21:44.664Z,1003.56
2018-10-07T01:22:44.585Z,1003.61
2018-10-07T01:24:37.355Z,1003.61
2018-10-07T01:25:37.291Z,1003.61
2018-10-07T01:27:30.065Z,1003.63
2018-10-07T01:28:29.990Z,1003.61
2018-10-07T01:30:22.785Z,1003.63
2018-10-07T01:31:22.716Z,1003.64
2018-10-07T01:33:15.504Z,1003.64
2018-10-07T01:34:15.427Z,1003.63
2018-10-07T01:36:08.200Z,1003.62
2018-10-07T01:37:08.133Z,1003.67
2018-10-07T01:39:00.935Z,1003.64
2018-10-07T01:40:00.869Z,1003.70
2018-10-07T01:41:53.747Z,1003.62
2018-10-07T01:42:53.648Z,1003.66
2018-10-07T01:44:46.441Z,1003.61
2018-10-07T01:45:46.374Z,1003.63
2018-10-07T01:47:39.174Z,1003.66
2018-10-07T01:48:39.086Z,1003.64
2018-10-07T01:50:31.853Z,1003.61
2018-10-07T01:51:31.793Z,1003.62
2018-10-07T01:53:24.566Z,1003.66
2018-10-07T01:54:24.490Z,1003.66
2018-10-07T01:56:17.272Z,1003.64
2018-10-07T01:57:17.199Z,1003.62
2018-10-07T01:59:10.036Z,1003.66
2018-10-07T02:00:09.905Z,1003.67
2018-10-07T02:02:02.677Z,1003.70
2018-10-07T02:03:02.623Z,1003.72
2018-10-07T02:04:55.440Z,1003.76
2018-10-07T02:05:55.360Z,1003.73
2018-10-07T02:07:48.143Z,1003.76
2018-10-07T02:08:48.064Z,1003.72
2018-10-07T02:10:40.847Z,1003.73
2018-10-07T02:11:40.778Z,1003.72
2018-10-07T02:13:33.547Z,1003.72
2018-10-07T02:14:33.473Z,1003.73
2018-10-07T02:16:26.237Z,1003.75
2018-10-07T02:17:26.168Z,1003.76
2018-10-07T02:19:18.955Z,1003.78
2018-10-07T02:20:18.925Z,1003.80
2018-10-07T02:22:11.640Z,1003.83
2018-10-07T02:23:11.576Z,1003.80
2018-10-07T02:25:04.372Z,1003.82
2018-10-07T02:26:04.306Z,1003.82
2018-10-07T02:27:57.068Z,1003.81
2018-10-07T02:28:56.992Z,1003.83
2018-10-07T02:30:49.765Z,1003.83
2018-10-07T02:31:49.701Z,1003.87
2018-10-07T02:33:42.488Z,1003.91
2018-10-07T02:34:42.400Z,1003.93
2018-10-07T02:36:35.180Z,1003.97
2018-10-07T02:37:35.107Z,1003.98
2018-10-07T02:39:27.881Z,1003.98
2018-10-07T02:40:27.809Z,1003.96
2018-10-07T02:42:20.590Z,1004.04
2018-10-07T02:43:20.513Z,1004.01
2018-10-07T02:45:13.312Z,1004.02
2018-10-07T02:46:13.216Z,1004.02
2018-10-07T02:48:06.067Z,1004.07
2018-10-07T02:49:05.923Z,1004.06
2018-10-07T02:50:58.680Z,1004.09
2018-10-07T02:51:58.621Z,1004.12
2018-10-07T02:53:51.417Z,1004.10
2018-10-07T02:54:51.330Z,1004.15
2018-10-07T02:56:44.089Z,1004.15
2018-10-07T02:57:44.076Z,1004.17
2018-10-07T02:59:36.827Z,1004.14
2018-10-07T03:00:36.739Z,1004.14
2018-10-07T03:02:29.507Z,1004.18
2018-10-07T03:03:29.441Z,1004.15
2018-10-07T03:05:22.245Z,1004.14
2018-10-07T03:06:22.159Z,1004.16
2018-10-07T03:08:14.938Z,1004.11
2018-10-07T03:09:14.864Z,1004.14
2018-10-07T03:11:07.644Z,1004.16
2018-10-07T03:12:07.580Z,1004.14
2018-10-07T03:14:00.354Z,1004.12
2018-10-07T03:15:00.280Z,1004.14
2018-10-07T03:16:53.049Z,1004.15
2018-10-07T03:17:52.982Z,1004.13
2018-10-07T03:19:45.776Z,1004.15
2018-10-07T03:20:45.701Z,1004.12
2018-10-07T03:22:38.465Z,1004.12
2018-10-07T03:23:38.402Z,1004.11
2018-10-07T03:25:31.212Z,1004.15
2018-10-07T03:26:31.109Z,1004.16
2018-10-07T03:28:23.890Z,1004.21
2018-10-07T03:29:23.869Z,1004.18
2018-10-07T03:31:16.586Z,1004.20
2018-10-07T03:32:16.522Z,1004.25
2018-10-07T03:34:09.331Z,1004.50
2018-10-07T03:35:09.224Z,1004.49
2018-10-07T03:37:02.016Z,1004.43
2018-10-07T03:38:01.937Z,1004.51
2018-10-07T03:39:54.766Z,1004.56
2018-10-07T03:40:54.687Z,1004.57
2018-10-07T03:42:47.458Z,1004.61
2018-10-07T03:43:47.395Z,1004.61
2018-10-07T03:45:40.177Z,1004.57
2018-10-07T03:46:40.097Z,1004.53
2018-10-07T03:48:32.910Z,1004.51
2018-10-07T03:49:32.856Z,1004.51
2018-10-07T03:51:25.596Z,1004.54
2018-10-07T03:52:25.530Z,1004.56
2018-10-07T03:54:18.323Z,1004.61
2018-10-07T03:55:18.237Z,1004.62
2018-10-07T03:57:11.047Z,1004.65
2018-10-07T03:58:10.956Z,1004.65
2018-10-07T04:00:03.744Z,1004.76
2018-10-07T04:01:03.661Z,1004.74
2018-10-07T04:02:56.455Z,1004.71
2018-10-07T04:03:56.381Z,1004.77
2018-10-07T04:05:49.215Z,1004.79
2018-10-07T04:06:49.134Z,1004.78
2018-10-07T04:08:41.908Z,1004.76
2018-10-07T04:09:41.831Z,1004.81
2018-10-07T04:11:34.634Z,1004.74
2018-10-07T04:12:34.536Z,1004.78
2018-10-07T04:14:27.341Z,1004.76
2018-10-07T04:15:27.261Z,1004.78
2018-10-07T04:17:20.052Z,1004.79
2018-10-07T04:18:19.975Z,1004.77
2018-10-07T04:20:12.766Z,1004.79
2018-10-07T04:21:12.681Z,1004.84
2018-10-07T04:23:05.450Z,1004.86
2018-10-07T04:24:05.392Z,1004.88
2018-10-07T04:25:58.187Z,1004.85
2018-10-07T04:26:58.107Z,1004.83
2018-10-07T04:28:50.897Z,1004.89
2018-10-07T04:29:50.809Z,1004.91
2018-10-07T04:31:43.580Z,1004.87
2018-10-07T04:32:43.514Z,1004.91
2018-10-07T04:34:36.312Z,1004.87
2018-10-07T04:35:36.225Z,1004.84
2018-10-07T04:37:28.994Z,1004.87
2018-10-07T04:38:28.925Z,1004.87
2018-10-07T04:40:21.717Z,1004.86
2018-10-07T04:41:21.630Z,1004.83
2018-10-07T04:43:14.403Z,1004.85
2018-10-07T04:44:14.343Z,1004.83
2018-10-07T04:46:07.128Z,1004.83
2018-10-07T04:47:07.051Z,1004.83
2018-10-07T04:48:59.837Z,1004.94
2018-10-07T04:49:59.767Z,1004.99
2018-10-07T04:51:52.520Z,1005.02
2018-10-07T04:52:52.446Z,1005.07
2018-10-07T04:54:45.270Z,1005.13
2018-10-07T04:55:45.192Z,1005.19
2018-10-07T04:57:37.969Z,1005.17
2018-10-07T04:58:37.899Z,1005.20
2018-10-07T05:00:30.678Z,1005.17
2018-10-07T05:01:30.595Z,1005.20
2018-10-07T05:03:23.367Z,1005.25
2018-10-07T05:04:23.307Z,1005.26
2018-10-07T05:06:16.092Z,1005.26
2018-10-07T05:07:16.009Z,1005.30
2018-10-07T05:09:08.792Z,1005.28
2018-10-07T05:10:08.733Z,1005.37
2018-10-07T05:12:01.594Z,1005.43
2018-10-07T05:13:01.435Z,1005.50
2018-10-07T05:14:54.246Z,1005.53
2018-10-07T05:15:54.158Z,1005.54
2018-10-07T05:17:47.035Z,1005.59
2018-10-07T05:18:46.925Z,1005.65
2018-10-07T05:20:39.699Z,1005.59
2018-10-07T05:21:39.751Z,1005.64
2018-10-07T05:23:32.400Z,1005.63
2018-10-07T05:24:32.341Z,1005.66
2018-10-07T05:26:25.119Z,1005.71
2018-10-07T05:27:25.054Z,1005.73
2018-10-07T05:29:17.819Z,1005.78
2018-10-07T05:30:17.735Z,1005.79
2018-10-07T05:32:10.558Z,1005.84
2018-10-07T05:33:10.452Z,1005.85
2018-10-07T05:35:03.266Z,1005.89
2018-10-07T05:36:03.214Z,1005.91
2018-10-07T05:37:56.020Z,1005.92
2018-10-07T05:38:55.932Z,1005.96
2018-10-07T05:40:48.743Z,1006.03
2018-10-07T05:41:48.637Z,1006.03
2018-10-07T05:43:41.436Z,1006.08
2018-10-07T05:44:41.399Z,1006.12
2018-10-07T05:46:34.158Z,1006.19
2018-10-07T05:47:34.063Z,1006.20
2018-10-07T05:49:26.842Z,1006.23
2018-10-07T05:50:26.775Z,1006.19
2018-10-07T05:52:19.726Z,1006.24
2018-10-07T05:53:20.181Z,1006.29
2018-10-07T05:55:12.543Z,1006.39
2018-10-07T05:56:12.587Z,1006.44
2018-10-07T05:58:05.339Z,1006.42
2018-10-07T05:59:05.479Z,1006.45
2018-10-07T06:00:58.021Z,1006.43
2018-10-07T06:01:58.033Z,1006.45
2018-10-07T06:03:50.707Z,1006.44
2018-10-07T06:04:50.634Z,1006.51
2018-10-07T06:06:43.439Z,1006.51
2018-10-07T06:07:43.361Z,1006.52
2018-10-07T06:09:36.134Z,1006.53
2018-10-07T06:10:36.057Z,1006.53
2018-10-07T06:12:28.905Z,1006.69
2018-10-07T06:13:28.809Z,1006.74
2018-10-07T06:15:21.614Z,1006.67
2018-10-07T06:16:21.512Z,1006.64
2018-10-07T06:18:14.345Z,1006.77
2018-10-07T06:19:14.247Z,1006.81
2018-10-07T06:21:07.473Z,1006.87
2018-10-07T06:22:07.202Z,1006.95
2018-10-07T06:23:59.980Z,1007.07
2018-10-07T06:24:59.919Z,1007.08
2018-10-07T06:26:52.731Z,1007.08
2018-10-07T06:27:52.649Z,1007.11
2018-10-07T06:29:45.439Z,1007.17
2018-10-07T06:30:45.358Z,1007.18
2018-10-07T06:32:38.131Z,1007.23
2018-10-07T06:33:38.074Z,1007.20
2018-10-07T06:35:30.846Z,1007.25
2018-10-07T06:36:30.769Z,1007.28
2018-10-07T06:38:23.576Z,1007.43
2018-10-07T06:39:23.494Z,1007.41
2018-10-07T06:41:16.317Z,1007.43
2018-10-07T06:42:16.225Z,1007.43
2018-10-07T06:44:08.984Z,1007.37
2018-10-07T06:45:08.927Z,1007.37
2018-10-07T06:47:01.706Z,1007.44
2018-10-07T06:48:01.607Z,1007.51
2018-10-07T06:49:54.372Z,1007.54
2018-10-07T06:50:54.311Z,1007.62
2018-10-07T06:52:47.156Z,1007.61
2018-10-07T06:53:47.029Z,1007.70
2018-10-07T06:55:39.835Z,1007.79
2018-10-07T06:56:39.755Z,1007.78
2018-10-07T06:58:32.814Z,1007.72
2018-10-07T06:59:32.783Z,1007.73
2018-10-07T07:01:25.542Z,1007.79
2018-10-07T07:02:25.454Z,1007.86
2018-10-07T07:04:18.225Z,1007.87
2018-10-07T07:05:18.163Z,1007.85
2018-10-07T07:07:10.945Z,1007.93
2018-10-07T07:08:10.859Z,1007.98
2018-10-07T07:10:03.628Z,1008.12
2018-10-07T07:11:03.556Z,1008.10
2018-10-07T07:12:56.408Z,1008.19
2018-10-07T07:13:56.262Z,1008.25
2018-10-07T07:15:49.076Z,1008.29
2018-10-07T07:16:48.993Z,1008.34
2018-10-07T07:18:41.791Z,1008.36
2018-10-07T07:19:41.722Z,1008.45
2018-10-07T07:21:34.511Z,1008.49
2018-10-07T07:22:34.428Z,1008.54
2018-10-07T07:24:27.191Z,1008.57
2018-10-07T07:25:27.127Z,1008.62
2018-10-07T07:27:19.947Z,1008.65
2018-10-07T07:28:19.943Z,1008.78
2018-10-07T07:30:12.626Z,1008.84
2018-10-07T07:31:12.610Z,1008.79
2018-10-07T07:33:05.353Z,1008.87
2018-10-07T07:34:05.269Z,1008.85
2018-10-07T07:35:58.052Z,1008.86
2018-10-07T07:36:58.066Z,1008.91
2018-10-07T07:38:50.794Z,1008.92
2018-10-07T07:39:50.704Z,1009.04
2018-10-07T07:41:43.509Z,1009.15
2018-10-07T07:42:43.419Z,1009.16
2018-10-07T07:44:36.191Z,1009.20
2018-10-07T07:45:36.124Z,1009.30
2018-10-07T07:47:28.921Z,1009.28
2018-10-07T07:48:28.840Z,1009.26
2018-10-07T07:50:21.606Z,1009.40
2018-10-07T07:51:21.582Z,1009.43
2018-10-07T07:53:14.307Z,1009.44
2018-10-07T07:54:14.235Z,1009.52
2018-10-07T07:56:07.027Z,1009.55
2018-10-07T07:57:06.958Z,1009.52
2018-10-07T07:58:59.762Z,1009.64
2018-10-07T07:59:59.797Z,1009.65
2018-10-07T08:01:52.476Z,1009.68
2018-10-07T08:02:52.394Z,1009.71
2018-10-07T08:04:45.155Z,1009.79
2018-10-07T08:05:45.092Z,1009.76
2018-10-07T08:07:37.896Z,1009.82
2018-10-07T08:08:37.832Z,1009.84
2018-10-07T08:10:30.594Z,1009.90
2018-10-07T08:11:30.525Z,1009.91
2018-10-07T08:13:23.293Z,1009.94
2018-10-07T08:14:23.218Z,1010.03
2018-10-07T08:16:16.013Z,1010.11
2018-10-07T08:17:15.940Z,1010.15
2018-10-07T08:19:08.715Z,1010.16
2018-10-07T08:20:08.638Z,1010.21
2018-10-07T08:22:01.410Z,1010.23
2018-10-07T08:23:01.341Z,1010.28
2018-10-07T08:24:54.249Z,1010.35
2018-10-07T08:25:54.145Z,1010.31
2018-10-07T08:27:46.938Z,1010.39
2018-10-07T08:28:46.859Z,1010.42
2018-10-07T08:30:39.630Z,1010.47
2018-10-07T08:31:39.561Z,1010.43
2018-10-07T08:33:32.404Z,1010.53
2018-10-07T08:34:32.300Z,1010.52
2018-10-07T08:36:25.164Z,1010.57
2018-10-07T08:37:25.045Z,1010.60
2018-10-07T08:39:17.844Z,1010.67
2018-10-07T08:40:17.765Z,1010.70
2018-10-07T08:42:10.540Z,1010.71
2018-10-07T08:43:10.462Z,1010.70
2018-10-07T08:45:03.227Z,1010.72
2018-10-07T08:46:03.178Z,1010.66
2018-10-07T08:47:55.975Z,1010.81
2018-10-07T08:48:55.906Z,1010.81
2018-10-07T08:50:48.693Z,1010.84
2018-10-07T08:51:48.620Z,1010.86
2018-10-07T08:53:41.423Z,1010.85
2018-10-07T08:54:41.335Z,1010.93
2018-10-07T08:56:34.172Z,1010.98
2018-10-07T08:57:34.036Z,1010.98
2018-10-07T08:59:26.825Z,1010.96
2018-10-07T09:00:26.745Z,1011.04
2018-10-07T09:02:19.557Z,1011.07
2018-10-07T09:03:19.468Z,1011.09
2018-10-07T09:05:12.223Z,1011.10
2018-10-07T09:06:12.161Z,1011.17
2018-10-07T09:08:04.984Z,1011.21
2018-10-07T09:09:04.889Z,1011.25
2018-10-07T09:10:57.660Z,1011.27
2018-10-07T09:11:57.585Z,1011.27
2018-10-07T09:13:50.382Z,1011.38
2018-10-07T09:14:50.291Z,1011.42
2018-10-07T09:16:43.071Z,1011.43
2018-10-07T09:17:43.044Z,1011.51
2018-10-07T09:19:35.797Z,1011.55
2018-10-07T09:20:35.717Z,1011.54
2018-10-07T09:22:28.507Z,1011.56
2018-10-07T09:23:28.431Z,1011.60
2018-10-07T09:25:21.204Z,1011.65
2018-10-07T09:26:21.130Z,1011.74
2018-10-07T09:28:13.932Z,1011.76
2018-10-07T09:29:13.851Z,1011.81
2018-10-07T09:31:06.650Z,1011.82
2018-10-07T09:32:06.590Z,1011.86
2018-10-07T09:33:59.352Z,1011.93
2018-10-07T09:34:59.347Z,1011.92
2018-10-07T09:36:52.091Z,1011.98
2018-10-07T09:37:52.020Z,1012.09
2018-10-07T09:39:44.849Z,1012.03
2018-10-07T09:40:44.716Z,1012.01
2018-10-07T09:42:37.493Z,1012.00
2018-10-07T09:43:37.456Z,1012.04
2018-10-07T09:45:30.831Z,1012.16
2018-10-07T09:46:30.286Z,1012.12
2018-10-07T09:48:23.107Z,1012.17
2018-10-07T09:49:23.158Z,1012.14
2018-10-07T09:51:16.957Z,1012.10
2018-10-07T09:52:16.950Z,1012.16
2018-10-07T09:54:10.710Z,1012.25
2018-10-07T09:55:11.303Z,1012.27
2018-10-07T09:57:03.380Z,1012.38
2018-10-07T09:58:03.310Z,1012.35
2018-10-07T09:59:56.599Z,1012.30
2018-10-07T10:00:56.520Z,1012.33
2018-10-07T10:02:49.488Z,1012.38
2018-10-07T10:03:49.320Z,1012.38
2018-10-07T10:05:42.610Z,1012.36
2018-10-07T10:06:42.413Z,1012.38
2018-10-07T10:08:35.065Z,1012.45
2018-10-07T10:09:34.989Z,1012.41
2018-10-07T10:11:27.967Z,1012.48
2018-10-07T10:12:27.856Z,1012.52
2018-10-07T10:14:20.713Z,1012.59
2018-10-07T10:15:20.633Z,1012.60
2018-10-07T10:17:13.516Z,1012.65
2018-10-07T10:18:13.669Z,1012.68
2018-10-07T10:20:06.381Z,1012.71
2018-10-07T10:21:06.243Z,1012.73
2018-10-07T10:22:59.961Z,1012.75
2018-10-07T10:23:59.930Z,1012.73
2018-10-07T10:25:53.104Z,1012.78
2018-10-07T10:26:52.948Z,1012.82
2018-10-07T10:28:46.030Z,1012.89
2018-10-07T10:29:45.894Z,1012.96
2018-10-07T10:31:39.109Z,1013.03
2018-10-07T10:32:39.102Z,1013.08
2018-10-07T10:34:32.234Z,1013.13
2018-10-07T10:35:31.697Z,1013.12
2018-10-07T10:37:25.141Z,1013.19
2018-10-07T10:38:24.483Z,1013.26
2018-10-07T10:40:17.498Z,1013.18
2018-10-07T10:41:17.365Z,1013.20
2018-10-07T10:43:11.927Z,1013.20
2018-10-07T10:44:11.725Z,1013.20
2018-10-07T10:46:04.784Z,1013.22
2018-10-07T10:47:04.653Z,1013.25
2018-10-07T10:48:57.354Z,1013.21
2018-10-07T10:49:57.281Z,1013.26
2018-10-07T10:51:50.086Z,1013.22
2018-10-07T10:52:50.011Z,1013.19
2018-10-07T10:54:42.802Z,1013.28
2018-10-07T10:55:42.753Z,1013.29
2018-10-07T10:57:35.578Z,1013.28
2018-10-07T10:58:35.506Z,1013.30
2018-10-07T11:00:28.290Z,1013.36
2018-10-07T11:01:28.208Z,1013.36
2018-10-07T11:03:21.028Z,1013.37
2018-10-07T11:04:20.964Z,1013.40
2018-10-07T11:06:13.861Z,1013.42
2018-10-07T11:07:13.711Z,1013.38
2018-10-07T11:09:06.495Z,1013.40
2018-10-07T11:10:06.408Z,1013.43
2018-10-07T11:11:59.197Z,1013.41
2018-10-07T11:12:59.107Z,1013.44
2018-10-07T11:14:51.921Z,1013.44
2018-10-07T11:15:51.878Z,1013.42
2018-10-07T11:17:44.755Z,1013.48
2018-10-07T11:18:44.646Z,1013.44
2018-10-07T11:20:37.368Z,1013.48
2018-10-07T11:21:37.303Z,1013.53
2018-10-07T11:23:30.070Z,1013.57
2018-10-07T11:24:30.010Z,1013.60
2018-10-07T11:26:22.806Z,1013.64
2018-10-07T11:27:22.752Z,1013.64
2018-10-07T11:29:15.547Z,1013.61
2018-10-07T11:30:15.459Z,1013.67
2018-10-07T11:32:08.261Z,1013.71
2018-10-07T11:33:08.189Z,1013.73
2018-10-07T11:35:01.018Z,1013.71
2018-10-07T11:36:00.928Z,1013.73
2018-10-07T11:37:53.680Z,1013.73
2018-10-07T11:38:53.609Z,1013.74
2018-10-07T11:40:46.419Z,1013.72
2018-10-07T11:41:46.349Z,1013.75
2018-10-07T11:43:39.147Z,1013.80
2018-10-07T11:44:39.064Z,1013.86
2018-10-07T11:46:31.915Z,1013.86
2018-10-07T11:47:31.784Z,1013.82
2018-10-07T11:49:24.594Z,1013.84
2018-10-07T11:50:24.547Z,1013.81
2018-10-07T11:52:17.306Z,1013.84
2018-10-07T11:53:17.222Z,1013.86
2018-10-07T11:55:10.012Z,1013.84
2018-10-07T11:56:09.944Z,1013.83
2018-10-07T11:58:02.758Z,1013.85
2018-10-07T11:59:02.648Z,1013.85
2018-10-07T12:00:55.446Z,1013.88
2018-10-07T12:01:55.376Z,1013.88
2018-10-07T12:03:48.144Z,1013.94
2018-10-07T12:04:48.050Z,1013.96
2018-10-07T12:06:40.843Z,1013.93
2018-10-07T12:07:40.747Z,1013.96
2018-10-07T12:09:33.532Z,1014.02
2018-10-07T12:10:33.455Z,1014.02
2018-10-07T12:12:26.256Z,1014.04
2018-10-07T12:13:26.170Z,1014.05
2018-10-07T12:15:19.002Z,1014.05
2018-10-07T12:16:18.911Z,1014.05
2018-10-07T12:18:11.781Z,1014.07
2018-10-07T12:19:11.662Z,1014.02
2018-10-07T12:21:04.500Z,1014.09
2018-10-07T12:22:04.372Z,1014.16
2018-10-07T12:23:57.162Z,1014.19
2018-10-07T12:24:57.080Z,1014.11
2018-10-07T12:26:49.867Z,1014.14
2018-10-07T12:27:49.802Z,1014.13
2018-10-07T12:29:42.569Z,1014.20
2018-10-07T12:30:42.506Z,1014.16
2018-10-07T12:32:35.306Z,1014.15
2018-10-07T12:33:35.267Z,1014.15
2018-10-07T12:35:28.011Z,1014.23
2018-10-07T12:36:27.951Z,1014.25
2018-10-07T12:38:20.747Z,1014.28
2018-10-07T12:39:20.663Z,1014.29
2018-10-07T12:41:13.544Z,1014.30
2018-10-07T12:42:13.374Z,1014.26
2018-10-07T12:44:06.157Z,1014.27
2018-10-07T12:45:06.094Z,1014.29
2018-10-07T12:46:58.995Z,1014.31
2018-10-07T12:47:58.910Z,1014.32
2018-10-07T12:49:51.714Z,1014.31
2018-10-07T12:50:51.617Z,1014.30
2018-10-07T12:52:43.615Z,1014.29
2018-10-07T12:53:43.545Z,1014.38
2018-10-07T12:55:36.334Z,1014.37
2018-10-07T12:56:36.291Z,1014.37
2018-10-07T12:58:29.057Z,1014.40
2018-10-07T12:59:29.016Z,1014.35
2018-10-07T13:01:21.752Z,1014.40
2018-10-07T13:02:21.695Z,1014.33
2018-10-07T13:04:14.490Z,1014.43
2018-10-07T13:05:14.402Z,1014.45
2018-10-07T13:07:06.283Z,1014.53
2018-10-07T13:08:06.206Z,1014.51
2018-10-07T13:09:58.987Z,1014.54
2018-10-07T13:10:58.958Z,1014.56
2018-10-07T13:12:51.707Z,1014.52
2018-10-07T13:13:51.633Z,1014.54
2018-10-07T13:15:44.461Z,1014.60
2018-10-07T13:16:44.356Z,1014.61
2018-10-07T13:18:37.171Z,1014.62
2018-10-07T13:19:37.071Z,1014.67
2018-10-07T13:21:29.879Z,1014.74
2018-10-07T13:22:29.819Z,1014.72
2018-10-07T13:24:22.600Z,1014.77
2018-10-07T13:25:22.561Z,1014.76
2018-10-07T13:27:15.337Z,1014.77
2018-10-07T13:28:15.264Z,1014.78
2018-10-07T13:30:08.066Z,1014.79
2018-10-07T13:31:08.001Z,1014.84
2018-10-07T13:33:00.777Z,1014.85
2018-10-07T13:34:00.704Z,1014.86
2018-10-07T13:35:53.495Z,1014.89
2018-10-07T13:36:53.422Z,1014.89
2018-10-07T13:38:46.204Z,1014.92
2018-10-07T13:39:46.178Z,1014.90
2018-10-07T13:41:38.960Z,1014.94
2018-10-07T13:42:38.851Z,1014.96
2018-10-07T13:44:31.678Z,1014.93
2018-10-07T13:45:31.584Z,1014.99
2018-10-07T13:47:24.354Z,1014.99
2018-10-07T13:48:24.288Z,1015.01
2018-10-07T13:50:17.070Z,1015.03
2018-10-07T13:51:16.989Z,1015.07
2018-10-07T13:53:09.802Z,1015.09
2018-10-07T13:54:09.704Z,1015.12
2018-10-07T13:56:02.485Z,1015.21
2018-10-07T13:57:02.418Z,1015.24
2018-10-07T13:58:55.206Z,1015.32
2018-10-07T13:59:55.133Z,1015.31
2018-10-07T14:01:47.910Z,1015.29
2018-10-07T14:02:47.889Z,1015.28
2018-10-07T14:04:40.691Z,1015.35
2018-10-07T14:05:40.600Z,1015.29
2018-10-07T14:07:33.413Z,1015.31
2018-10-07T14:08:33.343Z,1015.34
2018-10-07T14:10:26.086Z,1015.36
2018-10-07T14:11:26.027Z,1015.36
2018-10-07T14:13:18.835Z,1015.40
2018-10-07T14:14:18.761Z,1015.39
2018-10-07T14:16:11.551Z,1015.40
2018-10-07T14:17:11.489Z,1015.43
2018-10-07T14:19:04.293Z,1015.38
2018-10-07T14:20:04.208Z,1015.42
2018-10-07T14:21:57.022Z,1015.42
2018-10-07T14:22:56.933Z,1015.42
2018-10-07T14:24:49.792Z,1015.47
2018-10-07T14:25:49.653Z,1015.48
2018-10-07T14:27:42.498Z,1015.48
2018-10-07T14:28:42.364Z,1015.55
2018-10-07T14:30:35.187Z,1015.56
2018-10-07T14:31:35.076Z,1015.57
2018-10-07T14:33:27.881Z,1015.60
2018-10-07T14:34:27.794Z,1015.59
2018-10-07T14:36:20.568Z,1015.55
2018-10-07T14:37:20.495Z,1015.55
2018-10-07T14:39:13.337Z,1015.60
2018-10-07T14:40:20.358Z,1015.59
2018-10-07T14:42:06.003Z,1015.60
2018-10-07T14:43:05.912Z,1015.61
2018-10-07T14:44:58.718Z,1015.65
2018-10-07T14:45:58.619Z,1015.66
2018-10-07T14:47:51.491Z,1015.66
2018-10-07T14:48:51.376Z,1015.70
2018-10-07T14:50:44.187Z,1015.75
2018-10-07T14:51:44.138Z,1015.74
2018-10-07T14:53:36.896Z,1015.79
2018-10-07T14:54:36.830Z,1015.78
2018-10-07T14:56:29.594Z,1015.85
2018-10-07T14:57:29.525Z,1015.86
2018-10-07T14:59:22.309Z,1015.87
2018-10-07T15:00:22.232Z,1015.91
2018-10-07T15:02:15.046Z,1015.87
2018-10-07T15:03:14.986Z,1015.93
2018-10-07T15:05:07.779Z,1015.97
2018-10-07T15:06:07.700Z,1015.96
2018-10-07T15:08:00.514Z,1015.97
2018-10-07T15:09:00.433Z,1015.99
2018-10-07T15:10:53.202Z,1015.99
2018-10-07T15:11:53.138Z,1015.99
2018-10-07T15:13:45.925Z,1015.95
2018-10-07T15:14:45.843Z,1015.97
2018-10-07T15:16:38.605Z,1016.00
2018-10-07T15:17:38.536Z,1016.06
2018-10-07T15:19:31.316Z,1016.09
2018-10-07T15:20:31.242Z,1016.10
2018-10-07T15:22:24.029Z,1016.13
2018-10-07T15:23:23.956Z,1016.16
2018-10-07T15:25:16.742Z,1016.10
2018-10-07T15:26:16.662Z,1016.10
2018-10-07T15:28:09.439Z,1016.11
2018-10-07T15:29:09.393Z,1016.12
2018-10-07T15:31:02.134Z,1016.17
2018-10-07T15:32:02.053Z,1016.14
2018-10-07T15:33:54.963Z,1016.16
2018-10-07T15:34:54.889Z,1016.15
2018-10-07T15:36:46.672Z,1016.16
2018-10-07T15:37:46.587Z,1016.13
2018-10-07T15:39:39.381Z,1016.18
2018-10-07T15:40:39.291Z,1016.16
2018-10-07T15:42:32.198Z,1016.18
2018-10-07T15:43:32.098Z,1016.16
2018-10-07T15:45:24.022Z,1016.16
2018-10-07T15:46:23.952Z,1016.21
2018-10-07T15:48:16.831Z,1016.26
2018-10-07T15:49:16.694Z,1016.23
2018-10-07T15:51:09.452Z,1016.26
2018-10-07T15:52:09.375Z,1016.32
2018-10-07T15:54:02.520Z,1016.27
2018-10-07T15:55:02.083Z,1016.27
2018-10-07T15:56:54.975Z,1016.30
2018-10-07T15:57:54.902Z,1016.34
2018-10-07T15:59:47.726Z,1016.34
2018-10-07T16:00:47.617Z,1016.35
2018-10-07T16:02:40.592Z,1016.42
2018-10-07T16:03:40.341Z,1016.42
2018-10-07T16:05:33.121Z,1016.45
2018-10-07T16:06:33.068Z,1016.49
2018-10-07T16:08:25.825Z,1016.51
2018-10-07T16:09:25.743Z,1016.51
2018-10-07T16:11:18.514Z,1016.53
2018-10-07T16:12:18.440Z,1016.49
2018-10-07T16:14:11.293Z,1016.53
2018-10-07T16:15:11.208Z,1016.57
2018-10-07T16:17:03.230Z,1016.61
2018-10-07T16:18:03.107Z,1016.64
2018-10-07T16:19:55.937Z,1016.65
2018-10-07T16:20:55.844Z,1016.69
2018-10-07T16:22:48.670Z,1016.69
2018-10-07T16:23:48.595Z,1016.69
2018-10-07T16:25:41.402Z,1016.71
2018-10-07T16:26:41.390Z,1016.72
2018-10-07T16:28:34.163Z,1016.71
2018-10-07T16:29:34.030Z,1016.77
2018-10-07T16:31:26.799Z,1016.69
2018-10-07T16:32:26.725Z,1016.70
2018-10-07T16:34:19.600Z,1016.76
2018-10-07T16:35:19.492Z,1016.74
2018-10-07T16:37:12.255Z,1016.77
2018-10-07T16:38:12.194Z,1016.79
2018-10-07T16:40:05.013Z,1016.80
2018-10-07T16:41:04.917Z,1016.84
2018-10-07T16:42:56.690Z,1016.86
2018-10-07T16:43:56.617Z,1016.87
2018-10-07T16:45:49.431Z,1016.89
2018-10-07T16:46:49.342Z,1016.86
2018-10-07T16:48:42.165Z,1016.94
2018-10-07T16:49:42.032Z,1016.92
2018-10-07T16:51:34.813Z,1016.98
2018-10-07T16:52:34.744Z,1017.00
2018-10-07T16:54:27.539Z,1017.07
2018-10-07T16:58:12.491Z,1017.17
2018-10-07T16:59:12.418Z,1017.17
2018-10-07T17:01:04.276Z,1017.26
2018-10-07T17:02:04.188Z,1017.26
2018-10-07T17:03:56.037Z,1017.33
2018-10-07T17:04:55.877Z,1017.35
2018-10-07T17:06:47.738Z,1017.37
2018-10-07T17:07:47.639Z,1017.39
2018-10-07T17:09:40.414Z,1017.50
2018-10-07T17:10:40.365Z,1017.51
2018-10-07T17:12:33.099Z,1017.60
2018-10-07T17:13:33.031Z,1017.60
2018-10-07T17:15:25.810Z,1017.53
2018-10-07T17:16:25.736Z,1017.55
2018-10-07T17:18:18.512Z,1017.54
2018-10-07T17:19:18.431Z,1017.59
2018-10-07T17:21:11.396Z,1017.62
2018-10-07T17:22:11.148Z,1017.62
2018-10-07T17:24:03.907Z,1017.63
2018-10-07T17:25:03.866Z,1017.64
2018-10-07T17:26:55.803Z,1017.61